EZY62RN EGKK-HEGN
Flight info
| Callsign | EZY62RN |
|---|---|
| Flight time | 4h 53m |
| Altitude | 35000 |
| Route | ODVIK Y311 DVR UL9 KONAN UL607 KOK DCT SISGA DCT KOMOB DCT PITES M150 KRH DCT UTABA DCT MOMUK DCT GEDSO DCT VEKEN DCT MSR DCT PINDO DCT PIKOS/N0443F370 DCT GERMI DCT MIL UL617 SIT UL607 PAXIS Y707 OBRAN L321 REXUM M872 BOPOB BOPOB1A |
| Aircraft | A320/M-SDE3FGHIRWY/LB1 |
Departure
| Time | 2026-04-14 10:47 |
|---|---|
| Airport | London Gatwick Airport (EGKK) |
Arrival
| Time | 2026-04-14 15:40 |
|---|---|
| Airport | Hurghada International Airport (HEGN) |
| Time | Latitude | Longitude | Altitude | Speed | Heading |
|---|---|---|---|---|---|
| 2026-04-14 10:04 | 51.15591 | -0.17621 | 204 ft | 0 kts | 347° |
| 2026-04-14 10:34 | 51.15589 | -0.17620 | 214 ft | 2 kts | 347° |
| 2026-04-14 10:34 | 51.15564 | -0.17611 | 210 ft | 4 kts | 347° |
| 2026-04-14 10:34 | 51.15539 | -0.17602 | 211 ft | 4 kts | 329° |
| 2026-04-14 10:35 | 51.15529 | -0.17576 | 216 ft | 3 kts | 259° |
| 2026-04-14 10:35 | 51.15533 | -0.17546 | 210 ft | 2 kts | 257° |
| 2026-04-14 10:35 | 51.15534 | -0.17543 | 210 ft | 0 kts | 257° |
| 2026-04-14 10:39 | 51.15533 | -0.17549 | 215 ft | 2 kts | 257° |
| 2026-04-14 10:39 | 51.15526 | -0.17596 | 207 ft | 6 kts | 257° |
| 2026-04-14 10:39 | 51.15513 | -0.17689 | 207 ft | 11 kts | 257° |
| 2026-04-14 10:39 | 51.15495 | -0.17824 | 203 ft | 13 kts | 257° |
| 2026-04-14 10:40 | 51.15476 | -0.17956 | 206 ft | 11 kts | 257° |
| 2026-04-14 10:40 | 51.15461 | -0.18069 | 211 ft | 9 kts | 257° |
| 2026-04-14 10:40 | 51.15429 | -0.18153 | 203 ft | 11 kts | 196° |
| 2026-04-14 10:40 | 51.15345 | -0.18129 | 209 ft | 14 kts | 167° |
| 2026-04-14 10:41 | 51.15247 | -0.18095 | 203 ft | 14 kts | 168° |
| 2026-04-14 10:41 | 51.15197 | -0.18200 | 208 ft | 14 kts | 258° |
| 2026-04-14 10:41 | 51.15183 | -0.18347 | 208 ft | 13 kts | 260° |
| 2026-04-14 10:41 | 51.15163 | -0.18494 | 208 ft | 16 kts | 257° |
| 2026-04-14 10:42 | 51.15136 | -0.18683 | 205 ft | 20 kts | 257° |
| 2026-04-14 10:42 | 51.15104 | -0.18915 | 205 ft | 23 kts | 257° |
| 2026-04-14 10:42 | 51.15068 | -0.19179 | 208 ft | 25 kts | 258° |
| 2026-04-14 10:42 | 51.15031 | -0.19452 | 204 ft | 25 kts | 257° |
| 2026-04-14 10:43 | 51.14992 | -0.19728 | 204 ft | 26 kts | 257° |
| 2026-04-14 10:43 | 51.14954 | -0.20009 | 213 ft | 26 kts | 257° |
| 2026-04-14 10:43 | 51.14914 | -0.20296 | 207 ft | 27 kts | 257° |
| 2026-04-14 10:43 | 51.14874 | -0.20586 | 209 ft | 27 kts | 258° |
| 2026-04-14 10:44 | 51.14836 | -0.20865 | 208 ft | 21 kts | 258° |
| 2026-04-14 10:44 | 51.14809 | -0.21061 | 209 ft | 15 kts | 258° |
| 2026-04-14 10:44 | 51.14781 | -0.21200 | 207 ft | 13 kts | 253° |
| 2026-04-14 10:44 | 51.14762 | -0.21334 | 204 ft | 12 kts | 258° |
| 2026-04-14 10:45 | 51.14710 | -0.21402 | 207 ft | 11 kts | 177° |
| 2026-04-14 10:45 | 51.14646 | -0.21344 | 208 ft | 11 kts | 143° |
| 2026-04-14 10:45 | 51.14571 | -0.21305 | 205 ft | 12 kts | 157° |
| 2026-04-14 10:45 | 51.14519 | -0.21193 | 205 ft | 14 kts | 94° |
| 2026-04-14 10:46 | 51.14523 | -0.21150 | 202 ft | 0 kts | 78° |
| 2026-04-14 10:46 | 51.14527 | -0.21118 | 213 ft | 20 kts | 78° |
| 2026-04-14 10:46 | 51.14612 | -0.20494 | 214 ft | 91 kts | 77° |
| 2026-04-14 10:47 | 51.14722 | -0.19686 | 208 ft | 129 kts | 77° |
| 2026-04-14 10:47 | 51.15030 | -0.17430 | 405 ft | 170 kts | 84° |
| 2026-04-14 10:47 | 51.15204 | -0.16197 | 861 ft | 170 kts | 83° |
| 2026-04-14 10:47 | 51.15552 | -0.13742 | 1717 ft | 174 kts | 83° |
| 2026-04-14 10:48 | 51.15731 | -0.12425 | 1894 ft | 188 kts | 84° |
| 2026-04-14 10:48 | 51.16020 | -0.10257 | 2144 ft | 211 kts | 83° |
| 2026-04-14 10:48 | 51.16341 | -0.07858 | 2449 ft | 234 kts | 83° |
| 2026-04-14 10:48 | 51.16699 | -0.05199 | 2819 ft | 256 kts | 83° |
| 2026-04-14 10:49 | 51.16865 | -0.02356 | 3473 ft | 260 kts | 96° |
| 2026-04-14 10:49 | 51.16817 | 0.00544 | 4222 ft | 265 kts | 96° |
| 2026-04-14 10:49 | 51.16764 | 0.03518 | 4958 ft | 271 kts | 96° |
| 2026-04-14 10:49 | 51.16709 | 0.06551 | 5720 ft | 275 kts | 94° |
| 2026-04-14 10:50 | 51.16652 | 0.09626 | 6435 ft | 280 kts | 93° |
| 2026-04-14 10:50 | 51.16595 | 0.12765 | 7098 ft | 286 kts | 94° |
| 2026-04-14 10:50 | 51.16538 | 0.15957 | 7773 ft | 290 kts | 92° |
| 2026-04-14 10:50 | 51.16517 | 0.19187 | 8503 ft | 294 kts | 90° |
| 2026-04-14 10:51 | 51.16524 | 0.22470 | 9169 ft | 299 kts | 89° |
| 2026-04-14 10:51 | 51.16544 | 0.25811 | 9872 ft | 303 kts | 88° |
| 2026-04-14 10:51 | 51.16566 | 0.29142 | 10529 ft | 306 kts | 89° |
| 2026-04-14 10:51 | 51.16583 | 0.32590 | 11191 ft | 309 kts | 89° |
| 2026-04-14 10:52 | 51.16593 | 0.35998 | 11780 ft | 314 kts | 89° |
| 2026-04-14 10:52 | 51.16597 | 0.39493 | 12332 ft | 322 kts | 89° |
| 2026-04-14 10:52 | 51.16598 | 0.43186 | 12469 ft | 344 kts | 89° |
| 2026-04-14 10:52 | 51.16598 | 0.47111 | 12606 ft | 364 kts | 89° |
| 2026-04-14 10:53 | 51.16598 | 0.51206 | 13005 ft | 373 kts | 90° |
| 2026-04-14 10:53 | 51.16595 | 0.55364 | 13572 ft | 378 kts | 90° |
| 2026-04-14 10:53 | 51.16593 | 0.59575 | 14142 ft | 382 kts | 90° |
| 2026-04-14 10:53 | 51.16589 | 0.63820 | 14694 ft | 385 kts | 90° |
| 2026-04-14 10:54 | 51.16582 | 0.68100 | 15244 ft | 388 kts | 90° |
| 2026-04-14 10:54 | 51.16572 | 0.72424 | 15795 ft | 391 kts | 90° |
| 2026-04-14 10:54 | 51.16561 | 0.76771 | 16336 ft | 394 kts | 89° |
| 2026-04-14 10:54 | 51.16547 | 0.81158 | 16869 ft | 398 kts | 89° |
| 2026-04-14 10:55 | 51.16533 | 0.85582 | 17394 ft | 401 kts | 89° |
| 2026-04-14 10:55 | 51.16518 | 0.90040 | 17914 ft | 404 kts | 89° |
| 2026-04-14 10:55 | 51.16502 | 0.94532 | 18457 ft | 407 kts | 89° |
| 2026-04-14 10:55 | 51.16485 | 0.99060 | 18898 ft | 410 kts | 89° |
| 2026-04-14 10:56 | 51.16468 | 1.03623 | 19324 ft | 413 kts | 89° |
| 2026-04-14 10:56 | 51.16446 | 1.08209 | 19743 ft | 416 kts | 89° |
| 2026-04-14 10:56 | 51.16421 | 1.12839 | 20156 ft | 419 kts | 89° |
| 2026-04-14 10:56 | 51.16394 | 1.17496 | 20578 ft | 422 kts | 88° |
| 2026-04-14 10:57 | 51.16365 | 1.22188 | 20993 ft | 425 kts | 88° |
| 2026-04-14 10:57 | 51.16335 | 1.26909 | 21393 ft | 428 kts | 88° |
| 2026-04-14 10:57 | 51.16302 | 1.31661 | 21793 ft | 430 kts | 88° |
| 2026-04-14 10:57 | 51.16263 | 1.36440 | 22189 ft | 433 kts | 89° |
| 2026-04-14 10:58 | 51.16137 | 1.41264 | 22563 ft | 437 kts | 90° |
| 2026-04-14 10:58 | 51.15921 | 1.46099 | 23004 ft | 438 kts | 92° |
| 2026-04-14 10:58 | 51.15654 | 1.50945 | 23439 ft | 440 kts | 92° |
| 2026-04-14 10:58 | 51.15369 | 1.55815 | 23811 ft | 442 kts | 92° |
| 2026-04-14 10:59 | 51.15089 | 1.60706 | 24104 ft | 445 kts | 92° |
| 2026-04-14 10:59 | 51.14821 | 1.65623 | 24398 ft | 448 kts | 92° |
| 2026-04-14 10:59 | 51.14567 | 1.70578 | 24681 ft | 450 kts | 91° |
| 2026-04-14 10:59 | 51.14322 | 1.75563 | 24974 ft | 453 kts | 91° |
| 2026-04-14 11:00 | 51.14077 | 1.80578 | 25246 ft | 455 kts | 91° |
| 2026-04-14 11:00 | 51.13826 | 1.85621 | 25508 ft | 458 kts | 91° |
| 2026-04-14 11:00 | 51.13571 | 1.90686 | 25792 ft | 460 kts | 91° |
| 2026-04-14 11:00 | 51.13307 | 1.95771 | 26119 ft | 461 kts | 91° |
| 2026-04-14 11:01 | 51.13038 | 2.00876 | 26419 ft | 463 kts | 91° |
| 2026-04-14 11:01 | 51.12768 | 2.05994 | 26694 ft | 465 kts | 91° |
| 2026-04-14 11:01 | 51.12497 | 2.11077 | 26963 ft | 468 kts | 91° |
| 2026-04-14 11:01 | 51.12219 | 2.16248 | 27232 ft | 470 kts | 90° |
| 2026-04-14 11:02 | 51.11937 | 2.21447 | 27497 ft | 472 kts | 90° |
| 2026-04-14 11:02 | 51.11651 | 2.26662 | 27758 ft | 474 kts | 90° |
| 2026-04-14 11:02 | 51.11361 | 2.31906 | 28021 ft | 477 kts | 90° |
| 2026-04-14 11:02 | 51.11068 | 2.37168 | 28285 ft | 479 kts | 90° |
| 2026-04-14 11:03 | 51.10772 | 2.42447 | 28574 ft | 479 kts | 90° |
| 2026-04-14 11:03 | 51.10474 | 2.47730 | 28841 ft | 481 kts | 90° |
| 2026-04-14 11:03 | 51.10171 | 2.53035 | 29083 ft | 482 kts | 90° |
| 2026-04-14 11:03 | 51.09859 | 2.58365 | 29309 ft | 485 kts | 91° |
| 2026-04-14 11:04 | 51.09256 | 2.63677 | 29531 ft | 492 kts | 100° |
| 2026-04-14 11:04 | 51.08161 | 2.68872 | 29750 ft | 499 kts | 109° |
| 2026-04-14 11:04 | 51.06614 | 2.73847 | 29945 ft | 504 kts | 115° |
| 2026-04-14 11:04 | 51.04971 | 2.78776 | 30169 ft | 505 kts | 115° |
| 2026-04-14 11:05 | 51.03328 | 2.83716 | 30465 ft | 505 kts | 115° |
| 2026-04-14 11:05 | 51.01692 | 2.88635 | 30814 ft | 502 kts | 115° |
| 2026-04-14 11:05 | 51.00063 | 2.93526 | 31154 ft | 500 kts | 115° |
| 2026-04-14 11:05 | 50.98437 | 2.98400 | 31452 ft | 499 kts | 115° |
| 2026-04-14 11:06 | 50.96813 | 3.03263 | 31728 ft | 498 kts | 115° |
| 2026-04-14 11:06 | 50.95187 | 3.08115 | 31997 ft | 497 kts | 115° |
| 2026-04-14 11:06 | 50.93563 | 3.12949 | 32268 ft | 497 kts | 115° |
| 2026-04-14 11:06 | 50.91935 | 3.17780 | 32527 ft | 496 kts | 115° |
| 2026-04-14 11:07 | 50.90306 | 3.22603 | 32788 ft | 496 kts | 115° |
| 2026-04-14 11:07 | 50.88679 | 3.27415 | 33057 ft | 495 kts | 115° |
| 2026-04-14 11:07 | 50.87051 | 3.32219 | 33377 ft | 494 kts | 115° |
| 2026-04-14 11:07 | 50.85432 | 3.36993 | 33696 ft | 492 kts | 115° |
| 2026-04-14 11:08 | 50.83812 | 3.41759 | 33973 ft | 491 kts | 115° |
| 2026-04-14 11:08 | 50.82217 | 3.46445 | 34213 ft | 490 kts | 115° |
| 2026-04-14 11:08 | 50.80578 | 3.51255 | 34432 ft | 490 kts | 115° |
| 2026-04-14 11:08 | 50.78981 | 3.55930 | 34641 ft | 490 kts | 115° |
| 2026-04-14 11:09 | 50.77361 | 3.60667 | 34857 ft | 489 kts | 115° |
| 2026-04-14 11:09 | 50.75744 | 3.65390 | 35065 ft | 489 kts | 115° |
| 2026-04-14 11:09 | 50.74125 | 3.70112 | 35180 ft | 489 kts | 116° |
| 2026-04-14 11:10 | 50.69267 | 3.84206 | 35210 ft | 486 kts | 116° |
| 2026-04-14 11:10 | 50.66028 | 3.93559 | 35212 ft | 486 kts | 116° |
| 2026-04-14 11:11 | 50.62776 | 4.02892 | 35212 ft | 486 kts | 116° |
| 2026-04-14 11:11 | 50.59513 | 4.12202 | 35215 ft | 486 kts | 116° |
| 2026-04-14 11:12 | 50.56239 | 4.21499 | 35204 ft | 486 kts | 116° |
| 2026-04-14 11:12 | 50.52962 | 4.30780 | 35212 ft | 486 kts | 116° |
| 2026-04-14 11:13 | 50.49669 | 4.40051 | 35215 ft | 486 kts | 116° |
| 2026-04-14 11:13 | 50.46364 | 4.49305 | 35218 ft | 486 kts | 116° |
| 2026-04-14 11:14 | 50.43053 | 4.58552 | 35219 ft | 486 kts | 116° |
| 2026-04-14 11:14 | 50.39743 | 4.67782 | 35230 ft | 485 kts | 117° |
| 2026-04-14 11:15 | 50.36438 | 4.76978 | 35231 ft | 484 kts | 117° |
| 2026-04-14 11:15 | 50.33130 | 4.86137 | 35231 ft | 483 kts | 117° |
| 2026-04-14 11:16 | 50.29813 | 4.95266 | 35223 ft | 482 kts | 117° |
| 2026-04-14 11:16 | 50.26493 | 5.04374 | 35223 ft | 482 kts | 117° |
| 2026-04-14 11:17 | 50.23167 | 5.13459 | 35235 ft | 481 kts | 117° |
| 2026-04-14 11:17 | 50.19851 | 5.22502 | 35220 ft | 480 kts | 117° |
| 2026-04-14 11:18 | 50.16558 | 5.31480 | 35218 ft | 479 kts | 117° |
| 2026-04-14 11:18 | 50.13244 | 5.40491 | 35215 ft | 479 kts | 117° |
| 2026-04-14 11:19 | 50.09998 | 5.49562 | 35220 ft | 478 kts | 116° |
| 2026-04-14 11:19 | 50.06803 | 5.58634 | 35218 ft | 477 kts | 116° |
| 2026-04-14 11:20 | 50.03595 | 5.67670 | 35210 ft | 477 kts | 116° |
| 2026-04-14 11:20 | 50.00364 | 5.76659 | 35206 ft | 476 kts | 117° |
| 2026-04-14 11:21 | 49.97125 | 5.85630 | 35206 ft | 476 kts | 117° |
| 2026-04-14 11:21 | 49.93886 | 5.94589 | 35217 ft | 475 kts | 117° |
| 2026-04-14 11:22 | 49.90640 | 6.03513 | 35216 ft | 474 kts | 117° |
| 2026-04-14 11:22 | 49.87396 | 6.12404 | 35213 ft | 473 kts | 117° |
| 2026-04-14 11:23 | 49.84151 | 6.21277 | 35209 ft | 473 kts | 117° |
| 2026-04-14 11:23 | 49.80904 | 6.30133 | 35206 ft | 472 kts | 117° |
| 2026-04-14 11:24 | 49.77656 | 6.38960 | 35215 ft | 472 kts | 118° |
| 2026-04-14 11:24 | 49.74404 | 6.47761 | 35212 ft | 470 kts | 118° |
| 2026-04-14 11:25 | 49.71194 | 6.56540 | 35196 ft | 469 kts | 117° |
| 2026-04-14 11:25 | 49.68146 | 6.65437 | 35197 ft | 468 kts | 115° |
| 2026-04-14 11:26 | 49.65155 | 6.74346 | 35193 ft | 468 kts | 116° |
| 2026-04-14 11:26 | 49.62122 | 6.83218 | 35203 ft | 467 kts | 117° |
| 2026-04-14 11:27 | 49.59056 | 6.92036 | 35198 ft | 466 kts | 117° |
| 2026-04-14 11:27 | 49.55978 | 7.00822 | 35195 ft | 465 kts | 117° |
| 2026-04-14 11:28 | 49.52908 | 7.09592 | 35195 ft | 465 kts | 117° |
| 2026-04-14 11:28 | 49.49845 | 7.18351 | 35205 ft | 465 kts | 117° |
| 2026-04-14 11:29 | 49.46777 | 7.27102 | 35209 ft | 464 kts | 117° |
| 2026-04-14 11:29 | 49.43698 | 7.35825 | 35207 ft | 464 kts | 117° |
| 2026-04-14 11:30 | 49.41132 | 7.43051 | 35205 ft | 464 kts | 117° |
| 2026-04-14 11:30 | 49.38043 | 7.51749 | 35192 ft | 464 kts | 117° |
| 2026-04-14 11:31 | 49.34956 | 7.60428 | 35202 ft | 464 kts | 117° |
| 2026-04-14 11:31 | 49.31861 | 7.69097 | 35204 ft | 463 kts | 118° |
| 2026-04-14 11:32 | 49.28756 | 7.77741 | 35206 ft | 463 kts | 118° |
| 2026-04-14 11:32 | 49.25650 | 7.86366 | 35199 ft | 462 kts | 118° |
| 2026-04-14 11:33 | 49.22545 | 7.94971 | 35198 ft | 462 kts | 118° |
| 2026-04-14 11:34 | 49.17881 | 8.07855 | 35207 ft | 461 kts | 118° |
| 2026-04-14 11:34 | 49.14766 | 8.16406 | 35207 ft | 460 kts | 118° |
| 2026-04-14 11:35 | 49.11647 | 8.24937 | 35206 ft | 460 kts | 118° |
| 2026-04-14 11:35 | 49.08530 | 8.33454 | 35197 ft | 459 kts | 118° |
| 2026-04-14 11:36 | 49.05401 | 8.41945 | 35197 ft | 459 kts | 118° |
| 2026-04-14 11:36 | 49.02260 | 8.50431 | 35192 ft | 459 kts | 119° |
| 2026-04-14 11:37 | 48.98720 | 8.58500 | 35186 ft | 459 kts | 132° |
| 2026-04-14 11:37 | 48.93959 | 8.64864 | 35177 ft | 459 kts | 141° |
| 2026-04-14 11:38 | 48.88923 | 8.70943 | 35178 ft | 460 kts | 141° |
| 2026-04-14 11:38 | 48.83942 | 8.76943 | 35184 ft | 460 kts | 142° |
| 2026-04-14 11:39 | 48.78932 | 8.82961 | 35192 ft | 458 kts | 142° |
| 2026-04-14 11:39 | 48.73940 | 8.88952 | 35198 ft | 457 kts | 142° |
| 2026-04-14 11:40 | 48.68943 | 8.94919 | 35184 ft | 456 kts | 142° |
| 2026-04-14 11:40 | 48.63956 | 9.00862 | 35182 ft | 456 kts | 142° |
| 2026-04-14 11:41 | 48.58966 | 9.06786 | 35178 ft | 456 kts | 142° |
| 2026-04-14 11:41 | 48.53977 | 9.12698 | 35180 ft | 456 kts | 142° |
| 2026-04-14 11:42 | 48.48990 | 9.18593 | 35193 ft | 455 kts | 142° |
| 2026-04-14 11:42 | 48.44013 | 9.24459 | 35187 ft | 454 kts | 142° |
| 2026-04-14 11:43 | 48.39036 | 9.30321 | 35189 ft | 454 kts | 142° |
| 2026-04-14 11:43 | 48.34065 | 9.36157 | 35181 ft | 453 kts | 142° |
| 2026-04-14 11:44 | 48.29089 | 9.41963 | 35178 ft | 453 kts | 143° |
| 2026-04-14 11:44 | 48.24128 | 9.47791 | 35176 ft | 452 kts | 141° |
| 2026-04-14 11:45 | 48.19346 | 9.53908 | 35182 ft | 451 kts | 139° |
| 2026-04-14 11:45 | 48.14662 | 9.60145 | 35180 ft | 450 kts | 138° |
| 2026-04-14 11:46 | 48.09958 | 9.66316 | 35179 ft | 449 kts | 139° |
| 2026-04-14 11:46 | 48.05228 | 9.72409 | 35175 ft | 448 kts | 139° |
| 2026-04-14 11:47 | 48.00524 | 9.78419 | 35166 ft | 448 kts | 139° |
| 2026-04-14 11:47 | 47.95789 | 9.84470 | 35165 ft | 448 kts | 139° |
| 2026-04-14 11:48 | 47.91063 | 9.90520 | 35161 ft | 448 kts | 139° |
| 2026-04-14 11:48 | 47.86324 | 9.96561 | 35161 ft | 448 kts | 138° |
| 2026-04-14 11:49 | 47.82323 | 10.03610 | 35160 ft | 447 kts | 120° |
| 2026-04-14 11:49 | 47.79192 | 10.11604 | 35148 ft | 447 kts | 120° |
| 2026-04-14 11:50 | 47.76059 | 10.19584 | 35133 ft | 447 kts | 119° |
| 2026-04-14 11:50 | 47.72907 | 10.27567 | 35129 ft | 448 kts | 120° |
| 2026-04-14 11:51 | 47.68170 | 10.39568 | 35131 ft | 450 kts | 120° |
| 2026-04-14 11:51 | 47.64994 | 10.47568 | 35127 ft | 450 kts | 120° |
| 2026-04-14 11:52 | 47.61810 | 10.55547 | 35125 ft | 450 kts | 121° |
| 2026-04-14 11:52 | 47.58625 | 10.63520 | 35131 ft | 449 kts | 121° |
| 2026-04-14 11:53 | 47.55439 | 10.71474 | 35133 ft | 449 kts | 121° |
| 2026-04-14 11:53 | 47.52248 | 10.79413 | 35128 ft | 449 kts | 121° |
| 2026-04-14 11:54 | 47.49050 | 10.87331 | 35129 ft | 448 kts | 121° |
| 2026-04-14 11:54 | 47.45854 | 10.95238 | 35139 ft | 447 kts | 122° |
| 2026-04-14 11:55 | 47.42656 | 11.03120 | 35138 ft | 447 kts | 122° |
| 2026-04-14 11:55 | 47.39461 | 11.10974 | 35137 ft | 446 kts | 123° |
| 2026-04-14 11:56 | 47.36272 | 11.18821 | 35136 ft | 446 kts | 122° |
| 2026-04-14 11:56 | 47.33095 | 11.26599 | 35113 ft | 445 kts | 123° |
| 2026-04-14 11:57 | 47.29885 | 11.34404 | 35120 ft | 445 kts | 123° |
| 2026-04-14 11:57 | 47.26678 | 11.42189 | 35122 ft | 444 kts | 123° |
| 2026-04-14 11:58 | 47.23468 | 11.49958 | 35121 ft | 444 kts | 123° |
| 2026-04-14 11:58 | 47.20265 | 11.57708 | 35121 ft | 443 kts | 123° |
| 2026-04-14 11:59 | 47.17059 | 11.65436 | 35113 ft | 442 kts | 124° |
| 2026-04-14 11:59 | 47.13852 | 11.73142 | 35112 ft | 442 kts | 123° |
| 2026-04-14 12:00 | 47.10652 | 11.80831 | 35081 ft | 441 kts | 124° |
| 2026-04-14 12:00 | 47.07535 | 11.88585 | 35079 ft | 442 kts | 118° |
| 2026-04-14 12:01 | 47.04828 | 11.96684 | 35073 ft | 442 kts | 118° |
| 2026-04-14 12:01 | 47.02125 | 12.04790 | 35071 ft | 442 kts | 118° |
| 2026-04-14 12:02 | 46.99415 | 12.12873 | 35061 ft | 442 kts | 118° |
| 2026-04-14 12:02 | 46.96697 | 12.20959 | 35062 ft | 442 kts | 118° |
| 2026-04-14 12:03 | 46.93964 | 12.29033 | 35064 ft | 442 kts | 118° |
| 2026-04-14 12:03 | 46.91233 | 12.37091 | 35065 ft | 442 kts | 118° |
| 2026-04-14 12:04 | 46.88505 | 12.45126 | 35062 ft | 441 kts | 118° |
| 2026-04-14 12:04 | 46.85767 | 12.53164 | 35055 ft | 442 kts | 119° |
| 2026-04-14 12:05 | 46.83021 | 12.61185 | 35045 ft | 441 kts | 119° |
| 2026-04-14 12:05 | 46.80275 | 12.69207 | 35038 ft | 441 kts | 119° |
| 2026-04-14 12:06 | 46.77525 | 12.77213 | 35022 ft | 441 kts | 119° |
| 2026-04-14 12:06 | 46.74773 | 12.85203 | 35030 ft | 441 kts | 119° |
| 2026-04-14 12:07 | 46.72026 | 12.93128 | 35034 ft | 441 kts | 119° |
| 2026-04-14 12:07 | 46.69260 | 13.01104 | 35037 ft | 441 kts | 119° |
| 2026-04-14 12:08 | 46.66488 | 13.09065 | 35038 ft | 441 kts | 120° |
| 2026-04-14 12:08 | 46.63690 | 13.17069 | 35040 ft | 440 kts | 120° |
| 2026-04-14 12:09 | 46.60915 | 13.25013 | 35049 ft | 440 kts | 120° |
| 2026-04-14 12:09 | 46.58149 | 13.32887 | 35048 ft | 440 kts | 120° |
| 2026-04-14 12:10 | 46.54794 | 13.40243 | 35052 ft | 435 kts | 135° |
| 2026-04-14 12:10 | 46.50561 | 13.46486 | 35041 ft | 434 kts | 137° |
| 2026-04-14 12:11 | 46.46327 | 13.52718 | 35060 ft | 433 kts | 137° |
| 2026-04-14 12:11 | 46.42093 | 13.58922 | 35058 ft | 433 kts | 137° |
| 2026-04-14 12:12 | 46.37864 | 13.65116 | 35058 ft | 432 kts | 137° |
| 2026-04-14 12:12 | 46.33628 | 13.71298 | 35055 ft | 432 kts | 137° |
| 2026-04-14 12:13 | 46.29387 | 13.77470 | 35031 ft | 432 kts | 137° |
| 2026-04-14 12:13 | 46.25150 | 13.83625 | 35042 ft | 432 kts | 137° |
| 2026-04-14 12:14 | 46.20914 | 13.89772 | 35051 ft | 432 kts | 137° |
| 2026-04-14 12:14 | 46.17357 | 13.94918 | 35037 ft | 432 kts | 137° |
| 2026-04-14 12:15 | 46.13114 | 14.01042 | 35043 ft | 432 kts | 137° |
| 2026-04-14 12:15 | 46.08864 | 14.07159 | 35028 ft | 432 kts | 138° |
| 2026-04-14 12:16 | 46.04609 | 14.13264 | 35036 ft | 432 kts | 139° |
| 2026-04-14 12:16 | 46.00356 | 14.19364 | 35045 ft | 432 kts | 139° |
| 2026-04-14 12:17 | 45.96101 | 14.25449 | 35067 ft | 431 kts | 137° |
| 2026-04-14 12:17 | 45.91844 | 14.31516 | 35064 ft | 431 kts | 138° |
| 2026-04-14 12:18 | 45.87575 | 14.37589 | 35036 ft | 432 kts | 138° |
| 2026-04-14 12:18 | 45.83326 | 14.43634 | 35040 ft | 433 kts | 138° |
| 2026-04-14 12:19 | 45.79038 | 14.49713 | 35044 ft | 434 kts | 138° |
| 2026-04-14 12:19 | 45.74738 | 14.55798 | 35050 ft | 435 kts | 138° |
| 2026-04-14 12:20 | 45.70422 | 14.61884 | 35064 ft | 435 kts | 138° |
| 2026-04-14 12:20 | 45.66111 | 14.67958 | 35052 ft | 435 kts | 138° |
| 2026-04-14 12:21 | 45.61795 | 14.74028 | 35064 ft | 435 kts | 138° |
| 2026-04-14 12:21 | 45.57470 | 14.80086 | 35071 ft | 436 kts | 138° |
| 2026-04-14 12:22 | 45.53135 | 14.86126 | 35078 ft | 435 kts | 138° |
| 2026-04-14 12:22 | 45.48807 | 14.92167 | 35082 ft | 436 kts | 138° |
| 2026-04-14 12:23 | 45.44474 | 14.98207 | 35074 ft | 435 kts | 138° |
| 2026-04-14 12:23 | 45.40134 | 15.04220 | 35072 ft | 436 kts | 138° |
| 2026-04-14 12:24 | 45.35786 | 15.10230 | 35081 ft | 436 kts | 138° |
| 2026-04-14 12:24 | 45.31441 | 15.16237 | 35085 ft | 435 kts | 138° |
| 2026-04-14 12:25 | 45.27100 | 15.22225 | 35083 ft | 435 kts | 138° |
| 2026-04-14 12:25 | 45.22758 | 15.28199 | 35083 ft | 435 kts | 138° |
| 2026-04-14 12:26 | 45.18410 | 15.34165 | 35081 ft | 435 kts | 138° |
| 2026-04-14 12:26 | 45.14058 | 15.40125 | 35079 ft | 434 kts | 138° |
| 2026-04-14 12:27 | 45.09737 | 15.46030 | 35074 ft | 434 kts | 138° |
| 2026-04-14 12:27 | 45.05388 | 15.51961 | 35069 ft | 434 kts | 139° |
| 2026-04-14 12:28 | 45.01038 | 15.57879 | 35064 ft | 434 kts | 139° |
| 2026-04-14 12:28 | 44.96686 | 15.63787 | 35058 ft | 434 kts | 139° |
| 2026-04-14 12:29 | 44.92324 | 15.69693 | 35059 ft | 434 kts | 139° |
| 2026-04-14 12:29 | 44.87960 | 15.75598 | 35055 ft | 434 kts | 139° |
| 2026-04-14 12:30 | 44.83589 | 15.81489 | 35033 ft | 435 kts | 139° |
| 2026-04-14 12:30 | 44.79205 | 15.87376 | 35024 ft | 436 kts | 139° |
| 2026-04-14 12:31 | 44.74811 | 15.93273 | 35025 ft | 437 kts | 139° |
| 2026-04-14 12:31 | 44.70403 | 15.99182 | 35017 ft | 437 kts | 139° |
| 2026-04-14 12:32 | 44.65996 | 16.05080 | 35024 ft | 438 kts | 139° |
| 2026-04-14 12:32 | 44.61582 | 16.10983 | 35005 ft | 439 kts | 139° |
| 2026-04-14 12:33 | 44.57150 | 16.16880 | 35006 ft | 439 kts | 139° |
| 2026-04-14 12:33 | 44.52704 | 16.22763 | 34997 ft | 440 kts | 139° |
| 2026-04-14 12:34 | 44.48252 | 16.28655 | 35001 ft | 440 kts | 139° |
| 2026-04-14 12:34 | 44.43801 | 16.34550 | 34995 ft | 441 kts | 139° |
| 2026-04-14 12:35 | 44.39369 | 16.40407 | 34990 ft | 442 kts | 139° |
| 2026-04-14 12:35 | 44.34895 | 16.46294 | 35000 ft | 442 kts | 139° |
| 2026-04-14 12:36 | 44.30419 | 16.52172 | 35001 ft | 441 kts | 139° |
| 2026-04-14 12:36 | 44.25947 | 16.58033 | 35003 ft | 441 kts | 140° |
| 2026-04-14 12:37 | 44.21467 | 16.63883 | 35008 ft | 441 kts | 140° |
| 2026-04-14 12:37 | 44.16985 | 16.69725 | 35009 ft | 441 kts | 140° |
| 2026-04-14 12:38 | 44.10275 | 16.78465 | 35023 ft | 439 kts | 140° |
| 2026-04-14 12:39 | 44.05807 | 16.84262 | 35023 ft | 439 kts | 140° |
| 2026-04-14 12:39 | 44.01335 | 16.90045 | 35015 ft | 439 kts | 140° |
| 2026-04-14 12:40 | 43.96860 | 16.95828 | 35014 ft | 440 kts | 139° |
| 2026-04-14 12:40 | 43.92381 | 17.01610 | 35015 ft | 440 kts | 140° |
| 2026-04-14 12:41 | 43.87891 | 17.07392 | 35016 ft | 440 kts | 140° |
| 2026-04-14 12:41 | 43.83421 | 17.13116 | 35022 ft | 440 kts | 140° |
| 2026-04-14 12:42 | 43.78914 | 17.18876 | 35017 ft | 441 kts | 140° |
| 2026-04-14 12:42 | 43.74412 | 17.24641 | 35022 ft | 441 kts | 140° |
| 2026-04-14 12:43 | 43.69902 | 17.30402 | 35023 ft | 442 kts | 140° |
| 2026-04-14 12:43 | 43.65382 | 17.36156 | 35026 ft | 442 kts | 140° |
| 2026-04-14 12:44 | 43.60852 | 17.41897 | 35019 ft | 443 kts | 140° |
| 2026-04-14 12:44 | 43.56305 | 17.47654 | 35021 ft | 444 kts | 140° |
| 2026-04-14 12:45 | 43.49461 | 17.56303 | 35024 ft | 446 kts | 140° |
| 2026-04-14 12:45 | 43.44888 | 17.62077 | 35031 ft | 446 kts | 140° |
| 2026-04-14 12:46 | 43.40302 | 17.67848 | 35040 ft | 447 kts | 140° |
| 2026-04-14 12:46 | 43.35710 | 17.73606 | 35042 ft | 447 kts | 140° |
| 2026-04-14 12:47 | 43.31109 | 17.79370 | 35027 ft | 448 kts | 140° |
| 2026-04-14 12:47 | 43.26493 | 17.85140 | 34985 ft | 449 kts | 140° |
| 2026-04-14 12:48 | 43.21811 | 17.90813 | 34989 ft | 449 kts | 142° |
| 2026-04-14 12:48 | 43.17046 | 17.96368 | 34987 ft | 450 kts | 143° |
| 2026-04-14 12:49 | 43.12271 | 18.01916 | 34999 ft | 451 kts | 143° |
| 2026-04-14 12:49 | 43.07508 | 18.07493 | 35012 ft | 451 kts | 142° |
| 2026-04-14 12:50 | 43.00368 | 18.15893 | 35032 ft | 451 kts | 142° |
| 2026-04-14 12:51 | 42.95604 | 18.21473 | 35026 ft | 451 kts | 142° |
| 2026-04-14 12:51 | 42.90830 | 18.27042 | 35022 ft | 451 kts | 143° |
| 2026-04-14 12:52 | 42.86044 | 18.32593 | 35031 ft | 452 kts | 144° |
| 2026-04-14 12:52 | 42.81259 | 18.38138 | 35034 ft | 451 kts | 144° |
| 2026-04-14 12:53 | 42.76476 | 18.43682 | 35027 ft | 451 kts | 143° |
| 2026-04-14 12:53 | 42.71724 | 18.49179 | 35032 ft | 452 kts | 143° |
| 2026-04-14 12:54 | 42.66932 | 18.54701 | 35019 ft | 452 kts | 143° |
| 2026-04-14 12:54 | 42.62136 | 18.60226 | 35021 ft | 452 kts | 143° |
| 2026-04-14 12:55 | 42.57329 | 18.65746 | 35025 ft | 452 kts | 143° |
| 2026-04-14 12:55 | 42.52519 | 18.71257 | 35027 ft | 453 kts | 143° |
| 2026-04-14 12:56 | 42.47707 | 18.76771 | 35011 ft | 453 kts | 143° |
| 2026-04-14 12:56 | 42.42893 | 18.82276 | 35001 ft | 453 kts | 144° |
| 2026-04-14 12:57 | 42.38070 | 18.87768 | 35006 ft | 453 kts | 144° |
| 2026-04-14 12:57 | 42.33245 | 18.93252 | 35014 ft | 453 kts | 144° |
| 2026-04-14 12:58 | 42.29230 | 18.97801 | 35019 ft | 453 kts | 144° |
| 2026-04-14 12:58 | 42.24397 | 19.03274 | 35025 ft | 453 kts | 144° |
| 2026-04-14 12:59 | 42.19564 | 19.08738 | 35027 ft | 453 kts | 145° |
| 2026-04-14 12:59 | 42.14733 | 19.14183 | 35002 ft | 452 kts | 145° |
| 2026-04-14 13:00 | 42.09902 | 19.19616 | 35005 ft | 451 kts | 146° |
| 2026-04-14 13:00 | 42.05073 | 19.25029 | 35017 ft | 452 kts | 145° |
| 2026-04-14 13:01 | 42.00244 | 19.30437 | 35013 ft | 451 kts | 145° |
| 2026-04-14 13:01 | 41.95426 | 19.35850 | 35008 ft | 451 kts | 146° |
| 2026-04-14 13:02 | 41.90606 | 19.41227 | 35011 ft | 450 kts | 146° |
| 2026-04-14 13:02 | 41.85789 | 19.46588 | 35002 ft | 449 kts | 146° |
| 2026-04-14 13:03 | 41.80974 | 19.51940 | 34999 ft | 449 kts | 146° |
| 2026-04-14 13:03 | 41.76162 | 19.57284 | 34995 ft | 449 kts | 146° |
| 2026-04-14 13:04 | 41.71346 | 19.62620 | 34984 ft | 449 kts | 147° |
| 2026-04-14 13:04 | 41.66531 | 19.67942 | 34995 ft | 449 kts | 147° |
| 2026-04-14 13:05 | 41.61710 | 19.73242 | 35007 ft | 449 kts | 147° |
| 2026-04-14 13:05 | 41.56923 | 19.78511 | 35004 ft | 449 kts | 147° |
| 2026-04-14 13:06 | 41.52102 | 19.83799 | 34998 ft | 449 kts | 148° |
| 2026-04-14 13:06 | 41.47281 | 19.89088 | 35012 ft | 449 kts | 148° |
| 2026-04-14 13:07 | 41.42466 | 19.94364 | 35025 ft | 448 kts | 148° |
| 2026-04-14 13:07 | 41.37647 | 19.99623 | 35029 ft | 447 kts | 148° |
| 2026-04-14 13:08 | 41.32839 | 20.04868 | 35027 ft | 446 kts | 148° |
| 2026-04-14 13:08 | 41.28036 | 20.10088 | 35028 ft | 446 kts | 148° |
| 2026-04-14 13:09 | 41.23227 | 20.15304 | 35008 ft | 446 kts | 149° |
| 2026-04-14 13:09 | 41.18420 | 20.20518 | 35011 ft | 447 kts | 149° |
| 2026-04-14 13:10 | 41.13607 | 20.25728 | 35020 ft | 446 kts | 149° |
| 2026-04-14 13:10 | 41.08795 | 20.30919 | 35036 ft | 446 kts | 149° |
| 2026-04-14 13:11 | 41.03979 | 20.36105 | 35047 ft | 445 kts | 149° |
| 2026-04-14 13:11 | 40.99170 | 20.41276 | 35042 ft | 445 kts | 149° |
| 2026-04-14 13:12 | 40.94354 | 20.46433 | 35048 ft | 445 kts | 149° |
| 2026-04-14 13:12 | 40.89543 | 20.51582 | 35067 ft | 445 kts | 150° |
| 2026-04-14 13:13 | 40.84729 | 20.56734 | 35066 ft | 445 kts | 150° |
| 2026-04-14 13:13 | 40.79916 | 20.61877 | 35092 ft | 445 kts | 150° |
| 2026-04-14 13:14 | 40.75127 | 20.66970 | 35093 ft | 445 kts | 150° |
| 2026-04-14 13:14 | 40.70273 | 20.72120 | 35067 ft | 445 kts | 150° |
| 2026-04-14 13:15 | 40.65486 | 20.77198 | 35087 ft | 445 kts | 150° |
| 2026-04-14 13:15 | 40.60668 | 20.82308 | 35087 ft | 445 kts | 151° |
| 2026-04-14 13:16 | 40.55840 | 20.87402 | 35106 ft | 445 kts | 151° |
| 2026-04-14 13:16 | 40.50972 | 20.92526 | 35108 ft | 445 kts | 151° |
| 2026-04-14 13:17 | 40.46151 | 20.97660 | 35113 ft | 447 kts | 149° |
| 2026-04-14 13:17 | 40.41456 | 21.03060 | 35117 ft | 449 kts | 148° |
| 2026-04-14 13:18 | 40.36842 | 21.08521 | 35133 ft | 450 kts | 148° |
| 2026-04-14 13:18 | 40.32181 | 21.13951 | 35125 ft | 447 kts | 148° |
| 2026-04-14 13:19 | 40.27491 | 21.19325 | 35140 ft | 448 kts | 149° |
| 2026-04-14 13:19 | 40.22787 | 21.24691 | 35140 ft | 448 kts | 149° |
| 2026-04-14 13:20 | 40.18091 | 21.30055 | 35149 ft | 448 kts | 149° |
| 2026-04-14 13:20 | 40.13404 | 21.35408 | 35158 ft | 447 kts | 149° |
| 2026-04-14 13:21 | 40.08722 | 21.40741 | 35179 ft | 446 kts | 149° |
| 2026-04-14 13:21 | 40.04043 | 21.46054 | 35169 ft | 446 kts | 149° |
| 2026-04-14 13:22 | 39.99362 | 21.51361 | 35170 ft | 445 kts | 149° |
| 2026-04-14 13:22 | 39.94595 | 21.56420 | 35173 ft | 436 kts | 155° |
| 2026-04-14 13:23 | 39.89604 | 21.60929 | 35165 ft | 436 kts | 155° |
| 2026-04-14 13:23 | 39.84611 | 21.65419 | 35166 ft | 436 kts | 155° |
| 2026-04-14 13:24 | 39.79624 | 21.69909 | 35167 ft | 436 kts | 155° |
| 2026-04-14 13:24 | 39.72137 | 21.76648 | 35150 ft | 436 kts | 155° |
| 2026-04-14 13:25 | 39.67132 | 21.81132 | 35414 ft | 438 kts | 155° |
| 2026-04-14 13:26 | 39.59586 | 21.87867 | 36033 ft | 440 kts | 154° |
| 2026-04-14 13:26 | 39.57062 | 21.90121 | 36236 ft | 441 kts | 154° |
| 2026-04-14 13:26 | 39.54537 | 21.92372 | 36406 ft | 441 kts | 154° |
| 2026-04-14 13:26 | 39.52006 | 21.94626 | 36576 ft | 442 kts | 154° |
| 2026-04-14 13:27 | 39.49466 | 21.96889 | 36743 ft | 442 kts | 154° |
| 2026-04-14 13:27 | 39.46929 | 21.99149 | 36909 ft | 443 kts | 154° |
| 2026-04-14 13:27 | 39.44423 | 22.01378 | 37080 ft | 443 kts | 154° |
| 2026-04-14 13:27 | 39.41876 | 22.03637 | 37144 ft | 444 kts | 154° |
| 2026-04-14 13:28 | 39.36787 | 22.08143 | 37139 ft | 443 kts | 154° |
| 2026-04-14 13:28 | 39.31670 | 22.12665 | 37136 ft | 442 kts | 154° |
| 2026-04-14 13:29 | 39.26623 | 22.17116 | 37139 ft | 442 kts | 154° |
| 2026-04-14 13:29 | 39.21547 | 22.21597 | 37136 ft | 442 kts | 154° |
| 2026-04-14 13:30 | 39.16464 | 22.26075 | 37139 ft | 442 kts | 154° |
| 2026-04-14 13:30 | 39.11392 | 22.30536 | 37118 ft | 441 kts | 154° |
| 2026-04-14 13:31 | 39.06317 | 22.34985 | 37133 ft | 441 kts | 154° |
| 2026-04-14 13:31 | 39.01240 | 22.39430 | 37139 ft | 441 kts | 154° |
| 2026-04-14 13:32 | 38.96174 | 22.43875 | 37142 ft | 441 kts | 154° |
| 2026-04-14 13:32 | 38.91100 | 22.48291 | 37145 ft | 441 kts | 155° |
| 2026-04-14 13:33 | 38.86021 | 22.52706 | 37118 ft | 442 kts | 154° |
| 2026-04-14 13:33 | 38.80928 | 22.57139 | 37124 ft | 443 kts | 154° |
| 2026-04-14 13:34 | 38.73275 | 22.63780 | 37129 ft | 443 kts | 154° |
| 2026-04-14 13:35 | 38.68166 | 22.68201 | 37136 ft | 444 kts | 155° |
| 2026-04-14 13:35 | 38.63051 | 22.72624 | 37140 ft | 444 kts | 155° |
| 2026-04-14 13:36 | 38.57925 | 22.77039 | 37136 ft | 444 kts | 155° |
| 2026-04-14 13:36 | 38.52833 | 22.81415 | 37132 ft | 444 kts | 155° |
| 2026-04-14 13:37 | 38.47701 | 22.85830 | 37143 ft | 445 kts | 155° |
| 2026-04-14 13:37 | 38.42556 | 22.90249 | 37140 ft | 446 kts | 155° |
| 2026-04-14 13:38 | 38.37372 | 22.94689 | 37145 ft | 446 kts | 155° |
| 2026-04-14 13:38 | 38.32212 | 22.99092 | 37143 ft | 446 kts | 155° |
| 2026-04-14 13:39 | 38.27084 | 23.03465 | 37150 ft | 446 kts | 155° |
| 2026-04-14 13:39 | 38.21923 | 23.07861 | 37155 ft | 446 kts | 155° |
| 2026-04-14 13:40 | 38.16759 | 23.12259 | 37153 ft | 447 kts | 155° |
| 2026-04-14 13:40 | 38.11725 | 23.16995 | 37149 ft | 453 kts | 150° |
| 2026-04-14 13:41 | 38.06835 | 23.22088 | 37137 ft | 456 kts | 149° |
| 2026-04-14 13:41 | 38.01929 | 23.27190 | 37145 ft | 455 kts | 150° |
| 2026-04-14 13:42 | 37.96981 | 23.32173 | 37153 ft | 454 kts | 151° |
| 2026-04-14 13:42 | 37.92839 | 23.36281 | 37159 ft | 455 kts | 151° |
| 2026-04-14 13:43 | 37.87859 | 23.41224 | 37173 ft | 455 kts | 151° |
| 2026-04-14 13:43 | 37.82884 | 23.46177 | 37151 ft | 455 kts | 152° |
| 2026-04-14 13:44 | 37.77904 | 23.51149 | 37162 ft | 456 kts | 152° |
| 2026-04-14 13:44 | 37.72923 | 23.56117 | 37167 ft | 456 kts | 152° |
| 2026-04-14 13:45 | 37.67941 | 23.61063 | 37168 ft | 456 kts | 152° |
| 2026-04-14 13:45 | 37.62949 | 23.66001 | 37174 ft | 456 kts | 152° |
| 2026-04-14 13:46 | 37.57954 | 23.70927 | 37179 ft | 456 kts | 152° |
| 2026-04-14 13:46 | 37.52961 | 23.75845 | 37145 ft | 456 kts | 152° |
| 2026-04-14 13:47 | 37.47961 | 23.80771 | 37156 ft | 456 kts | 152° |
| 2026-04-14 13:47 | 37.42955 | 23.85700 | 37159 ft | 457 kts | 152° |
| 2026-04-14 13:48 | 37.37942 | 23.90624 | 37163 ft | 457 kts | 152° |
| 2026-04-14 13:48 | 37.32921 | 23.95540 | 37160 ft | 457 kts | 152° |
| 2026-04-14 13:49 | 37.27902 | 24.00443 | 37149 ft | 457 kts | 152° |
| 2026-04-14 13:49 | 37.22884 | 24.05350 | 37155 ft | 457 kts | 152° |
| 2026-04-14 13:50 | 37.17857 | 24.10256 | 37141 ft | 458 kts | 152° |
| 2026-04-14 13:50 | 37.12816 | 24.15171 | 37143 ft | 460 kts | 152° |
| 2026-04-14 13:51 | 37.07757 | 24.20083 | 37143 ft | 460 kts | 152° |
| 2026-04-14 13:51 | 37.02692 | 24.24994 | 37148 ft | 461 kts | 152° |
| 2026-04-14 13:52 | 36.97626 | 24.29901 | 37135 ft | 461 kts | 152° |
| 2026-04-14 13:52 | 36.92548 | 24.34801 | 37143 ft | 461 kts | 152° |
| 2026-04-14 13:53 | 36.87499 | 24.39672 | 37138 ft | 462 kts | 152° |
| 2026-04-14 13:53 | 36.82405 | 24.44583 | 37132 ft | 463 kts | 152° |
| 2026-04-14 13:54 | 36.77254 | 24.49533 | 37132 ft | 465 kts | 152° |
| 2026-04-14 13:54 | 36.72174 | 24.54454 | 37137 ft | 467 kts | 151° |
| 2026-04-14 13:55 | 36.67136 | 24.59594 | 37131 ft | 469 kts | 150° |
| 2026-04-14 13:55 | 36.62122 | 24.64812 | 37135 ft | 469 kts | 150° |
| 2026-04-14 13:56 | 36.57084 | 24.69983 | 37144 ft | 469 kts | 150° |
| 2026-04-14 13:56 | 36.52028 | 24.75101 | 37142 ft | 469 kts | 150° |
| 2026-04-14 13:57 | 36.46967 | 24.80220 | 37150 ft | 469 kts | 150° |
| 2026-04-14 13:57 | 36.41900 | 24.85342 | 37124 ft | 469 kts | 150° |
| 2026-04-14 13:58 | 36.36842 | 24.90452 | 37134 ft | 469 kts | 150° |
| 2026-04-14 13:58 | 36.31783 | 24.95562 | 37139 ft | 469 kts | 150° |
| 2026-04-14 13:59 | 36.26723 | 25.00654 | 37141 ft | 468 kts | 150° |
| 2026-04-14 13:59 | 36.21657 | 25.05735 | 37124 ft | 469 kts | 150° |
| 2026-04-14 14:00 | 36.16591 | 25.10824 | 37125 ft | 469 kts | 150° |
| 2026-04-14 14:00 | 36.11519 | 25.15909 | 37116 ft | 469 kts | 151° |
| 2026-04-14 14:01 | 36.06456 | 25.20972 | 37132 ft | 468 kts | 151° |
| 2026-04-14 14:01 | 36.01399 | 25.26022 | 37139 ft | 467 kts | 151° |
| 2026-04-14 14:02 | 35.96349 | 25.31052 | 37132 ft | 466 kts | 151° |
| 2026-04-14 14:02 | 35.91299 | 25.36084 | 37124 ft | 466 kts | 151° |
| 2026-04-14 14:03 | 35.86282 | 25.41063 | 37126 ft | 466 kts | 151° |
| 2026-04-14 14:03 | 35.81234 | 25.46063 | 37098 ft | 465 kts | 151° |
| 2026-04-14 14:04 | 35.76190 | 25.51051 | 37113 ft | 464 kts | 151° |
| 2026-04-14 14:04 | 35.71150 | 25.56022 | 37121 ft | 464 kts | 151° |
| 2026-04-14 14:05 | 35.66114 | 25.60995 | 37122 ft | 464 kts | 151° |
| 2026-04-14 14:05 | 35.61083 | 25.65961 | 37112 ft | 464 kts | 151° |
| 2026-04-14 14:06 | 35.56041 | 25.70927 | 37107 ft | 465 kts | 151° |
| 2026-04-14 14:06 | 35.50982 | 25.75896 | 37108 ft | 466 kts | 151° |
| 2026-04-14 14:07 | 35.45916 | 25.80859 | 37110 ft | 466 kts | 151° |
| 2026-04-14 14:07 | 35.40848 | 25.85822 | 37109 ft | 466 kts | 151° |
| 2026-04-14 14:08 | 35.35775 | 25.90774 | 37121 ft | 466 kts | 151° |
| 2026-04-14 14:08 | 35.30696 | 25.95721 | 37123 ft | 467 kts | 151° |
| 2026-04-14 14:09 | 35.25612 | 26.00677 | 37087 ft | 468 kts | 150° |
| 2026-04-14 14:09 | 35.20518 | 26.05639 | 37119 ft | 468 kts | 150° |
| 2026-04-14 14:10 | 35.15423 | 26.10591 | 37141 ft | 468 kts | 150° |
| 2026-04-14 14:10 | 35.10359 | 26.15495 | 37153 ft | 467 kts | 150° |
| 2026-04-14 14:11 | 35.05263 | 26.20435 | 37154 ft | 468 kts | 149° |
| 2026-04-14 14:11 | 35.00281 | 26.25583 | 37155 ft | 470 kts | 148° |
| 2026-04-14 14:12 | 34.95349 | 26.30842 | 37124 ft | 471 kts | 147° |
| 2026-04-14 14:12 | 34.90388 | 26.36055 | 37135 ft | 471 kts | 147° |
| 2026-04-14 14:13 | 34.85398 | 26.41217 | 37140 ft | 471 kts | 147° |
| 2026-04-14 14:13 | 34.80392 | 26.46376 | 37144 ft | 471 kts | 147° |
| 2026-04-14 14:14 | 34.75392 | 26.51539 | 37150 ft | 472 kts | 147° |
| 2026-04-14 14:14 | 34.70387 | 26.56709 | 37151 ft | 472 kts | 147° |
| 2026-04-14 14:15 | 34.65380 | 26.61870 | 37125 ft | 473 kts | 147° |
| 2026-04-14 14:15 | 34.60339 | 26.67045 | 37131 ft | 475 kts | 146° |
| 2026-04-14 14:16 | 34.55288 | 26.72230 | 37137 ft | 476 kts | 146° |
| 2026-04-14 14:16 | 34.50220 | 26.77430 | 37148 ft | 477 kts | 146° |
| 2026-04-14 14:17 | 34.42606 | 26.85229 | 37159 ft | 478 kts | 146° |
| 2026-04-14 14:17 | 34.37517 | 26.90426 | 37143 ft | 479 kts | 146° |
| 2026-04-14 14:18 | 34.32416 | 26.95632 | 37127 ft | 481 kts | 147° |
| 2026-04-14 14:18 | 34.27284 | 27.00851 | 37136 ft | 483 kts | 147° |
| 2026-04-14 14:19 | 34.22126 | 27.06084 | 37140 ft | 485 kts | 147° |
| 2026-04-14 14:19 | 34.16955 | 27.11329 | 37146 ft | 486 kts | 147° |
| 2026-04-14 14:20 | 34.11774 | 27.16575 | 37150 ft | 486 kts | 147° |
| 2026-04-14 14:20 | 34.06624 | 27.21783 | 37141 ft | 487 kts | 147° |
| 2026-04-14 14:21 | 34.01424 | 27.27025 | 37128 ft | 488 kts | 147° |
| 2026-04-14 14:21 | 33.96168 | 27.32183 | 37136 ft | 483 kts | 153° |
| 2026-04-14 14:22 | 33.90345 | 27.35905 | 37137 ft | 470 kts | 165° |
| 2026-04-14 14:22 | 33.84353 | 27.39077 | 37141 ft | 471 kts | 165° |
| 2026-04-14 14:23 | 33.78359 | 27.42251 | 37145 ft | 471 kts | 165° |
| 2026-04-14 14:23 | 33.72367 | 27.45426 | 37139 ft | 470 kts | 165° |
| 2026-04-14 14:24 | 33.66383 | 27.48581 | 37146 ft | 470 kts | 165° |
| 2026-04-14 14:24 | 33.60385 | 27.51740 | 37144 ft | 470 kts | 165° |
| 2026-04-14 14:25 | 33.54391 | 27.54895 | 37145 ft | 470 kts | 165° |
| 2026-04-14 14:25 | 33.49407 | 27.57520 | 37116 ft | 470 kts | 165° |
| 2026-04-14 14:26 | 33.43416 | 27.60666 | 37135 ft | 470 kts | 165° |
| 2026-04-14 14:26 | 33.37424 | 27.63809 | 37141 ft | 470 kts | 165° |
| 2026-04-14 14:27 | 33.31436 | 27.66947 | 37155 ft | 470 kts | 165° |
| 2026-04-14 14:27 | 33.25440 | 27.70079 | 37139 ft | 470 kts | 165° |
| 2026-04-14 14:28 | 33.19446 | 27.73211 | 37136 ft | 470 kts | 165° |
| 2026-04-14 14:28 | 33.13452 | 27.76334 | 37144 ft | 470 kts | 165° |
| 2026-04-14 14:29 | 33.07459 | 27.79452 | 37145 ft | 470 kts | 165° |
| 2026-04-14 14:29 | 33.01473 | 27.82572 | 37140 ft | 469 kts | 165° |
| 2026-04-14 14:30 | 32.95481 | 27.85684 | 37135 ft | 469 kts | 165° |
| 2026-04-14 14:30 | 32.89496 | 27.88784 | 37118 ft | 469 kts | 165° |
| 2026-04-14 14:31 | 32.83511 | 27.91881 | 37129 ft | 469 kts | 165° |
| 2026-04-14 14:31 | 32.77523 | 27.94969 | 37129 ft | 469 kts | 165° |
| 2026-04-14 14:32 | 32.71533 | 27.98047 | 37131 ft | 469 kts | 165° |
| 2026-04-14 14:32 | 32.65547 | 28.01135 | 37134 ft | 469 kts | 165° |
| 2026-04-14 14:33 | 32.59558 | 28.04221 | 37131 ft | 469 kts | 165° |
| 2026-04-14 14:33 | 32.53571 | 28.07294 | 37120 ft | 469 kts | 165° |
| 2026-04-14 14:34 | 32.44570 | 28.11896 | 37113 ft | 470 kts | 165° |
| 2026-04-14 14:35 | 32.38560 | 28.14974 | 37104 ft | 471 kts | 165° |
| 2026-04-14 14:35 | 32.32549 | 28.18046 | 37124 ft | 470 kts | 165° |
| 2026-04-14 14:36 | 32.26541 | 28.21117 | 37124 ft | 470 kts | 165° |
| 2026-04-14 14:36 | 32.20575 | 28.24157 | 37127 ft | 470 kts | 165° |
| 2026-04-14 14:37 | 32.14575 | 28.27210 | 37123 ft | 469 kts | 165° |
| 2026-04-14 14:37 | 32.08579 | 28.30252 | 37108 ft | 469 kts | 165° |
| 2026-04-14 14:38 | 32.02586 | 28.33297 | 37112 ft | 469 kts | 165° |
| 2026-04-14 14:38 | 31.96596 | 28.36327 | 37116 ft | 468 kts | 165° |
| 2026-04-14 14:39 | 31.90600 | 28.39355 | 37098 ft | 469 kts | 164° |
| 2026-04-14 14:39 | 31.84611 | 28.42386 | 37080 ft | 469 kts | 164° |
| 2026-04-14 14:40 | 31.78614 | 28.45403 | 37090 ft | 469 kts | 164° |
| 2026-04-14 14:40 | 31.72608 | 28.48405 | 37092 ft | 469 kts | 164° |
| 2026-04-14 14:41 | 31.66605 | 28.51409 | 37093 ft | 469 kts | 164° |
| 2026-04-14 14:41 | 31.60600 | 28.54422 | 37092 ft | 469 kts | 164° |
| 2026-04-14 14:42 | 31.54592 | 28.57426 | 37069 ft | 470 kts | 164° |
| 2026-04-14 14:42 | 31.48568 | 28.60421 | 37069 ft | 471 kts | 164° |
| 2026-04-14 14:43 | 31.42534 | 28.63416 | 37074 ft | 471 kts | 164° |
| 2026-04-14 14:43 | 31.36495 | 28.66405 | 37066 ft | 472 kts | 164° |
| 2026-04-14 14:44 | 31.30448 | 28.69407 | 37039 ft | 472 kts | 164° |
| 2026-04-14 14:44 | 31.24398 | 28.72414 | 37051 ft | 473 kts | 164° |
| 2026-04-14 14:45 | 31.18331 | 28.75414 | 37055 ft | 474 kts | 164° |
| 2026-04-14 14:45 | 31.12259 | 28.78415 | 37056 ft | 475 kts | 164° |
| 2026-04-14 14:46 | 31.06172 | 28.81407 | 37058 ft | 475 kts | 164° |
| 2026-04-14 14:46 | 31.00118 | 28.84377 | 37042 ft | 476 kts | 164° |
| 2026-04-14 14:47 | 30.94010 | 28.87390 | 37042 ft | 478 kts | 164° |
| 2026-04-14 14:47 | 30.87840 | 28.90425 | 37044 ft | 479 kts | 164° |
| 2026-04-14 14:48 | 30.81737 | 28.93413 | 37047 ft | 479 kts | 164° |
| 2026-04-14 14:48 | 30.75542 | 28.96438 | 37053 ft | 480 kts | 164° |
| 2026-04-14 14:49 | 30.69384 | 28.99443 | 37037 ft | 480 kts | 164° |
| 2026-04-14 14:49 | 30.63219 | 29.02455 | 37038 ft | 480 kts | 164° |
| 2026-04-14 14:50 | 30.57056 | 29.05456 | 37048 ft | 481 kts | 164° |
| 2026-04-14 14:50 | 30.51021 | 29.08753 | 37047 ft | 489 kts | 153° |
| 2026-04-14 14:51 | 30.45753 | 29.13953 | 37029 ft | 500 kts | 137° |
| 2026-04-14 14:51 | 30.40969 | 29.19736 | 37032 ft | 500 kts | 137° |
| 2026-04-14 14:52 | 30.36105 | 29.25581 | 37025 ft | 501 kts | 137° |
| 2026-04-14 14:52 | 30.31261 | 29.31364 | 37038 ft | 500 kts | 137° |
| 2026-04-14 14:53 | 30.26456 | 29.37104 | 37041 ft | 500 kts | 137° |
| 2026-04-14 14:53 | 30.21617 | 29.42872 | 37038 ft | 499 kts | 138° |
| 2026-04-14 14:54 | 30.16781 | 29.48631 | 37035 ft | 499 kts | 137° |
| 2026-04-14 14:54 | 30.11944 | 29.54388 | 37031 ft | 499 kts | 138° |
| 2026-04-14 14:55 | 30.07104 | 29.60145 | 37002 ft | 500 kts | 138° |
| 2026-04-14 14:55 | 30.02248 | 29.65919 | 37006 ft | 502 kts | 138° |
| 2026-04-14 14:56 | 29.94917 | 29.74591 | 37011 ft | 503 kts | 138° |
| 2026-04-14 14:56 | 29.90024 | 29.80368 | 37007 ft | 504 kts | 138° |
| 2026-04-14 14:57 | 29.85120 | 29.86158 | 37005 ft | 505 kts | 138° |
| 2026-04-14 14:57 | 29.80213 | 29.91944 | 37006 ft | 505 kts | 138° |
| 2026-04-14 14:58 | 29.75301 | 29.97729 | 37003 ft | 505 kts | 138° |
| 2026-04-14 14:58 | 29.70382 | 30.03512 | 37015 ft | 506 kts | 138° |
| 2026-04-14 14:59 | 29.65448 | 30.09298 | 37011 ft | 506 kts | 138° |
| 2026-04-14 14:59 | 29.60511 | 30.15080 | 37014 ft | 506 kts | 137° |
| 2026-04-14 15:00 | 29.55580 | 30.20841 | 37014 ft | 506 kts | 138° |
| 2026-04-14 15:00 | 29.50651 | 30.26597 | 37016 ft | 505 kts | 138° |
| 2026-04-14 15:01 | 29.45722 | 30.32351 | 37015 ft | 505 kts | 138° |
| 2026-04-14 15:01 | 29.40793 | 30.38089 | 37011 ft | 505 kts | 138° |
| 2026-04-14 15:02 | 29.35882 | 30.43847 | 36985 ft | 505 kts | 137° |
| 2026-04-14 15:02 | 29.31018 | 30.49682 | 36990 ft | 506 kts | 137° |
| 2026-04-14 15:03 | 29.26164 | 30.55524 | 36992 ft | 506 kts | 137° |
| 2026-04-14 15:03 | 29.21313 | 30.61297 | 36996 ft | 506 kts | 137° |
| 2026-04-14 15:04 | 29.16422 | 30.67101 | 37000 ft | 507 kts | 137° |
| 2026-04-14 15:04 | 29.11532 | 30.72910 | 37006 ft | 507 kts | 137° |
| 2026-04-14 15:05 | 29.06639 | 30.78710 | 37009 ft | 507 kts | 137° |
| 2026-04-14 15:05 | 29.01742 | 30.84502 | 36991 ft | 507 kts | 137° |
| 2026-04-14 15:06 | 28.96831 | 30.90297 | 36995 ft | 508 kts | 137° |
| 2026-04-14 15:06 | 28.91921 | 30.96093 | 37005 ft | 508 kts | 137° |
| 2026-04-14 15:07 | 28.87002 | 31.01890 | 36996 ft | 509 kts | 137° |
| 2026-04-14 15:07 | 28.82072 | 31.07693 | 36999 ft | 509 kts | 137° |
| 2026-04-14 15:08 | 28.77971 | 31.12513 | 37003 ft | 509 kts | 137° |
| 2026-04-14 15:08 | 28.73021 | 31.18305 | 37006 ft | 509 kts | 137° |
| 2026-04-14 15:09 | 28.68098 | 31.24121 | 36989 ft | 510 kts | 136° |
| 2026-04-14 15:09 | 28.63333 | 31.30115 | 36999 ft | 511 kts | 134° |
| 2026-04-14 15:10 | 28.58620 | 31.36193 | 37003 ft | 512 kts | 134° |
| 2026-04-14 15:10 | 28.53869 | 31.42227 | 37016 ft | 512 kts | 135° |
| 2026-04-14 15:11 | 28.49074 | 31.48219 | 37020 ft | 512 kts | 135° |
| 2026-04-14 15:11 | 28.44274 | 31.54200 | 37023 ft | 512 kts | 135° |
| 2026-04-14 15:12 | 28.39504 | 31.60155 | 37012 ft | 513 kts | 135° |
| 2026-04-14 15:12 | 28.34705 | 31.66162 | 37006 ft | 514 kts | 135° |
| 2026-04-14 15:13 | 28.29899 | 31.72168 | 36994 ft | 514 kts | 135° |
| 2026-04-14 15:13 | 28.25087 | 31.78173 | 37003 ft | 514 kts | 135° |
| 2026-04-14 15:14 | 28.20273 | 31.84162 | 37005 ft | 514 kts | 135° |
| 2026-04-14 15:14 | 28.15445 | 31.90154 | 37009 ft | 515 kts | 135° |
| 2026-04-14 15:15 | 28.10614 | 31.96142 | 37010 ft | 515 kts | 135° |
| 2026-04-14 15:15 | 28.05776 | 32.02130 | 37020 ft | 515 kts | 135° |
| 2026-04-14 15:16 | 28.01611 | 32.08734 | 37010 ft | 518 kts | 118° |
| 2026-04-14 15:16 | 27.98183 | 32.15921 | 36989 ft | 519 kts | 119° |
| 2026-04-14 15:17 | 27.94716 | 32.23096 | 36981 ft | 520 kts | 119° |
| 2026-04-14 15:17 | 27.91234 | 32.30278 | 36978 ft | 521 kts | 119° |
| 2026-04-14 15:18 | 27.87751 | 32.37457 | 36959 ft | 521 kts | 118° |
| 2026-04-14 15:18 | 27.84264 | 32.44655 | 36154 ft | 525 kts | 119° |
| 2026-04-14 15:19 | 27.82497 | 32.48300 | 34668 ft | 532 kts | 120° |
| 2026-04-14 15:19 | 27.80712 | 32.51982 | 33296 ft | 534 kts | 120° |
| 2026-04-14 15:19 | 27.78948 | 32.55622 | 32491 ft | 521 kts | 120° |
| 2026-04-14 15:19 | 27.77236 | 32.59158 | 31833 ft | 506 kts | 120° |
| 2026-04-14 15:20 | 27.75571 | 32.62596 | 31177 ft | 492 kts | 119° |
| 2026-04-14 15:20 | 27.73948 | 32.65940 | 30542 ft | 479 kts | 119° |
| 2026-04-14 15:20 | 27.72362 | 32.69192 | 29905 ft | 468 kts | 118° |
| 2026-04-14 15:20 | 27.70811 | 32.72364 | 29281 ft | 454 kts | 118° |
| 2026-04-14 15:21 | 27.69307 | 32.75442 | 28695 ft | 441 kts | 118° |
| 2026-04-14 15:21 | 27.67851 | 32.78424 | 28131 ft | 429 kts | 118° |
| 2026-04-14 15:21 | 27.66414 | 32.81362 | 27588 ft | 427 kts | 118° |
| 2026-04-14 15:21 | 27.64982 | 32.84289 | 27049 ft | 426 kts | 118° |
| 2026-04-14 15:22 | 27.63550 | 32.87210 | 26520 ft | 424 kts | 118° |
| 2026-04-14 15:22 | 27.62125 | 32.90110 | 26004 ft | 423 kts | 118° |
| 2026-04-14 15:22 | 27.60704 | 32.93001 | 25499 ft | 420 kts | 118° |
| 2026-04-14 15:22 | 27.59290 | 32.95876 | 25002 ft | 418 kts | 118° |
| 2026-04-14 15:23 | 27.57885 | 32.98736 | 24500 ft | 416 kts | 118° |
| 2026-04-14 15:23 | 27.56491 | 33.01576 | 24007 ft | 413 kts | 118° |
| 2026-04-14 15:23 | 27.55106 | 33.04401 | 23506 ft | 410 kts | 118° |
| 2026-04-14 15:23 | 27.53730 | 33.07206 | 22953 ft | 407 kts | 118° |
| 2026-04-14 15:24 | 27.52365 | 33.09979 | 22468 ft | 403 kts | 118° |
| 2026-04-14 15:24 | 27.51009 | 33.12729 | 21974 ft | 400 kts | 118° |
| 2026-04-14 15:24 | 27.49664 | 33.15453 | 21476 ft | 397 kts | 118° |
| 2026-04-14 15:24 | 27.48325 | 33.18164 | 20979 ft | 395 kts | 118° |
| 2026-04-14 15:25 | 27.46993 | 33.20860 | 20474 ft | 393 kts | 118° |
| 2026-04-14 15:25 | 27.45669 | 33.23543 | 19974 ft | 391 kts | 118° |
| 2026-04-14 15:25 | 27.44349 | 33.26221 | 19460 ft | 390 kts | 118° |
| 2026-04-14 15:25 | 27.43052 | 33.28849 | 18969 ft | 389 kts | 118° |
| 2026-04-14 15:26 | 27.41736 | 33.31508 | 18466 ft | 388 kts | 118° |
| 2026-04-14 15:26 | 27.40422 | 33.34157 | 17921 ft | 387 kts | 118° |
| 2026-04-14 15:26 | 27.39126 | 33.36806 | 17422 ft | 384 kts | 115° |
| 2026-04-14 15:26 | 27.38170 | 33.39591 | 16959 ft | 379 kts | 104° |
| 2026-04-14 15:27 | 27.37685 | 33.42485 | 16510 ft | 375 kts | 96° |
| 2026-04-14 15:27 | 27.37348 | 33.45378 | 16057 ft | 372 kts | 96° |
| 2026-04-14 15:27 | 27.37005 | 33.48244 | 15606 ft | 369 kts | 97° |
| 2026-04-14 15:27 | 27.36657 | 33.51091 | 15163 ft | 366 kts | 97° |
| 2026-04-14 15:28 | 27.36306 | 33.53917 | 14715 ft | 363 kts | 97° |
| 2026-04-14 15:28 | 27.35690 | 33.56644 | 14294 ft | 360 kts | 113° |
| 2026-04-14 15:28 | 27.34387 | 33.59007 | 13838 ft | 351 kts | 131° |
| 2026-04-14 15:28 | 27.32575 | 33.60748 | 13343 ft | 337 kts | 148° |
| 2026-04-14 15:29 | 27.30485 | 33.61791 | 12901 ft | 323 kts | 163° |
| 2026-04-14 15:29 | 27.28351 | 33.62425 | 12493 ft | 311 kts | 165° |
| 2026-04-14 15:29 | 27.26296 | 33.63032 | 12085 ft | 303 kts | 165° |
| 2026-04-14 15:29 | 27.24245 | 33.63642 | 11682 ft | 305 kts | 164° |
| 2026-04-14 15:30 | 27.22192 | 33.64254 | 11275 ft | 306 kts | 165° |
| 2026-04-14 15:30 | 27.20133 | 33.64866 | 10876 ft | 306 kts | 165° |
| 2026-04-14 15:30 | 27.18079 | 33.65477 | 10465 ft | 306 kts | 165° |
| 2026-04-14 15:30 | 27.16025 | 33.66089 | 10175 ft | 301 kts | 165° |
| 2026-04-14 15:31 | 27.14028 | 33.66684 | 9990 ft | 293 kts | 165° |
| 2026-04-14 15:31 | 27.12075 | 33.67267 | 9719 ft | 288 kts | 165° |
| 2026-04-14 15:31 | 27.10148 | 33.67844 | 9371 ft | 286 kts | 165° |
| 2026-04-14 15:31 | 27.08235 | 33.68417 | 9008 ft | 284 kts | 165° |
| 2026-04-14 15:32 | 27.06359 | 33.68974 | 8851 ft | 274 kts | 165° |
| 2026-04-14 15:32 | 27.04549 | 33.69508 | 8728 ft | 264 kts | 165° |
| 2026-04-14 15:32 | 27.02791 | 33.70027 | 8444 ft | 260 kts | 164° |
| 2026-04-14 15:32 | 27.01044 | 33.70542 | 8082 ft | 260 kts | 164° |
| 2026-04-14 15:33 | 26.99302 | 33.71055 | 7707 ft | 255 kts | 164° |
| 2026-04-14 15:33 | 26.97615 | 33.71549 | 7334 ft | 246 kts | 164° |
| 2026-04-14 15:33 | 26.95987 | 33.72026 | 6979 ft | 237 kts | 164° |
| 2026-04-14 15:33 | 26.94444 | 33.72553 | 6635 ft | 227 kts | 152° |
| 2026-04-14 15:34 | 26.93264 | 33.73646 | 6308 ft | 220 kts | 125° |
| 2026-04-14 15:34 | 26.92682 | 33.75199 | 5974 ft | 216 kts | 98° |
| 2026-04-14 15:34 | 26.92793 | 33.76856 | 5648 ft | 214 kts | 72° |
| 2026-04-14 15:34 | 26.93517 | 33.78299 | 5318 ft | 211 kts | 57° |
| 2026-04-14 15:35 | 26.94357 | 33.79634 | 5002 ft | 208 kts | 56° |
| 2026-04-14 15:35 | 26.95166 | 33.80931 | 4706 ft | 198 kts | 57° |
| 2026-04-14 15:35 | 26.95940 | 33.82174 | 4380 ft | 191 kts | 56° |
| 2026-04-14 15:35 | 26.96696 | 33.83386 | 4089 ft | 188 kts | 56° |
| 2026-04-14 15:36 | 26.97668 | 33.84359 | 3802 ft | 191 kts | 27° |
| 2026-04-14 15:36 | 26.98963 | 33.84640 | 3531 ft | 194 kts | 357° |
| 2026-04-14 15:36 | 27.00285 | 33.84297 | 3277 ft | 197 kts | 347° |
| 2026-04-14 15:36 | 27.01582 | 33.83914 | 2992 ft | 192 kts | 347° |
| 2026-04-14 15:37 | 27.02855 | 33.83538 | 2739 ft | 182 kts | 347° |
| 2026-04-14 15:37 | 27.04060 | 33.83181 | 2518 ft | 177 kts | 346° |
| 2026-04-14 15:37 | 27.05235 | 33.82832 | 2275 ft | 173 kts | 346° |
| 2026-04-14 15:37 | 27.06389 | 33.82491 | 2037 ft | 171 kts | 346° |
| 2026-04-14 15:38 | 27.07528 | 33.82155 | 1818 ft | 169 kts | 346° |
| 2026-04-14 15:38 | 27.08657 | 33.81823 | 1603 ft | 166 kts | 345° |
| 2026-04-14 15:38 | 27.09725 | 33.81509 | 1385 ft | 156 kts | 346° |
| 2026-04-14 15:38 | 27.10759 | 33.81204 | 1195 ft | 146 kts | 344° |
| 2026-04-14 15:39 | 27.11729 | 33.80919 | 1003 ft | 142 kts | 345° |
| 2026-04-14 15:39 | 27.12670 | 33.80644 | 800 ft | 138 kts | 344° |
| 2026-04-14 15:39 | 27.13585 | 33.80376 | 621 ft | 138 kts | 344° |
| 2026-04-14 15:39 | 27.14511 | 33.80105 | 428 ft | 133 kts | 346° |
| 2026-04-14 15:40 | 27.15403 | 33.79840 | 259 ft | 135 kts | 345° |
| 2026-04-14 15:40 | 27.16307 | 33.79565 | 124 ft | 132 kts | 346° |
| 2026-04-14 15:40 | 27.17061 | 33.79345 | 109 ft | 88 kts | 345° |
| 2026-04-14 15:40 | 27.17492 | 33.79214 | 101 ft | 49 kts | 346° |
| 2026-04-14 15:41 | 27.17770 | 33.79159 | 98 ft | 29 kts | 9° |
| 2026-04-14 15:41 | 27.17911 | 33.79181 | 99 ft | 15 kts | 12° |
| 2026-04-14 15:41 | 27.17967 | 33.79229 | 98 ft | 11 kts | 77° |
| 2026-04-14 15:41 | 27.17923 | 33.79286 | 96 ft | 11 kts | 164° |
| 2026-04-14 15:42 | 27.17842 | 33.79310 | 95 ft | 14 kts | 165° |
| 2026-04-14 15:42 | 27.17728 | 33.79344 | 98 ft | 19 kts | 165° |
| 2026-04-14 15:42 | 27.17589 | 33.79385 | 99 ft | 21 kts | 165° |
| 2026-04-14 15:42 | 27.17444 | 33.79429 | 101 ft | 22 kts | 165° |
| 2026-04-14 15:43 | 27.17307 | 33.79469 | 102 ft | 14 kts | 166° |
| 2026-04-14 15:43 | 27.17240 | 33.79501 | 102 ft | 9 kts | 128° |
| 2026-04-14 15:43 | 27.17249 | 33.79587 | 98 ft | 14 kts | 74° |
| 2026-04-14 15:43 | 27.17283 | 33.79729 | 82 ft | 25 kts | 75° |
| 2026-04-14 15:44 | 27.17329 | 33.79920 | 60 ft | 26 kts | 75° |
| 2026-04-14 15:44 | 27.17370 | 33.80094 | 55 ft | 16 kts | 75° |
| 2026-04-14 15:44 | 27.17400 | 33.80219 | 53 ft | 18 kts | 75° |
| 2026-04-14 15:44 | 27.17428 | 33.80331 | 51 ft | 12 kts | 75° |
| 2026-04-14 15:45 | 27.17448 | 33.80417 | 53 ft | 10 kts | 75° |
| 2026-04-14 15:45 | 27.17463 | 33.80484 | 52 ft | 9 kts | 75° |
| 2026-04-14 15:45 | 27.17484 | 33.80571 | 56 ft | 11 kts | 75° |
| 2026-04-14 15:45 | 27.17541 | 33.80618 | 56 ft | 12 kts | 352° |
| 2026-04-14 15:46 | 27.17608 | 33.80599 | 53 ft | 8 kts | 3° |
| 2026-04-14 15:46 | 27.17621 | 33.80641 | 53 ft | 5 kts | 80° |
| 2026-04-14 15:46 | 27.17629 | 33.80677 | 64 ft | 4 kts | 75° |
| 2026-04-14 15:46 | 27.17632 | 33.80691 | 73 ft | 1 kts | 75° |
| 2026-04-14 15:47 | 27.17634 | 33.80696 | 43 ft | 0 kts | 75° |